Time;durP1;ratioP1;P1;durP2;ratioP2;P2;SDS_P1;SDS_P2;PMS_P1;PMS_P2;Temp;Humidity;BMP_temperature;BMP_pressure;BME280_temperature;BME280_humidity;BME280_pressure;Samples;Min_cycle;Max_cycle;Signal;HPM_P1;HPM_P2
2022/07/02 00:02:21;;;;;;;12.45;3.42;;;28.10;47.90;;;;;;5014277;28;20076;-77
2022/07/02 00:05:01;;;;;;;11.90;3.58;;;28.10;48.80;;;;;;5013871;28;20014;-75
2022/07/02 00:07:27;;;;;;;9.60;3.63;;;28.00;48.40;;;;;;5013271;28;20387;-77
2022/07/02 00:09:57;;;;;;;17.40;4.72;;;28.00;48.30;;;;;;5014726;28;20029;-77
2022/07/02 00:12:24;;;;;;;12.55;4.50;;;28.00;48.90;;;;;;5014051;28;20025;-77
2022/07/02 00:14:55;;;;;;;16.00;5.20;;;28.00;48.80;;;;;;5014088;28;20030;-77
2022/07/02 00:17:22;;;;;;;14.20;4.60;;;28.00;48.70;;;;;;5013916;28;20061;-77
2022/07/02 00:19:50;;;;;;;17.10;3.90;;;27.90;48.80;;;;;;5014125;28;20054;-77
2022/07/02 00:22:16;;;;;;;11.48;3.95;;;27.90;49.10;;;;;;5014021;28;20103;-76
2022/07/02 00:24:43;;;;;;;14.25;3.63;;;27.90;49.70;;;;;;5014156;28;20029;-74
2022/07/02 00:27:10;;;;;;;10.77;3.40;;;27.90;50.50;;;;;;5013779;28;20022;-76
2022/07/02 00:29:50;;;;;;;10.63;3.50;;;27.80;51.20;;;;;;5013697;28;20025;-75
2022/07/02 00:32:16;;;;;;;10.60;3.67;;;27.70;50.40;;;;;;5013833;28;20029;-76
2022/07/02 00:34:44;;;;;;;11.30;3.63;;;27.70;52.30;;;;;;5014008;28;20041;-75
2022/07/02 00:37:11;;;;;;;11.60;3.30;;;27.70;52.90;;;;;;5012276;28;20030;-76
2022/07/02 00:39:37;;;;;;;15.02;3.78;;;27.70;53.20;;;;;;5013539;28;20475;-76
2022/07/02 00:42:04;;;;;;;12.18;3.50;;;27.60;53.80;;;;;;5013485;28;20046;-76
2022/07/02 00:44:32;;;;;;;9.45;3.13;;;27.60;53.90;;;;;;5013604;28;20022;-76
2022/07/02 00:47:06;;;;;;;9.40;3.65;;;27.50;54.80;;;;;;5013527;28;20372;-75
2022/07/02 00:49:36;;;;;;;7.68;3.20;;;27.40;55.30;;;;;;5013375;28;20475;-77
2022/07/02 00:52:03;;;;;;;11.07;3.33;;;27.30;55.60;;;;;;5013449;28;20466;-77
2022/07/02 00:54:29;;;;;;;9.27;3.38;;;27.30;55.70;;;;;;5012051;28;20097;-77
2022/07/02 00:56:55;;;;;;;21.02;3.63;;;27.30;55.80;;;;;;5013138;28;20041;-76
2022/07/02 00:59:25;;;;;;;11.98;3.45;;;27.30;56.30;;;;;;5013178;28;20084;-76
2022/07/02 01:01:51;;;;;;;7.60;2.95;;;27.30;56.60;;;;;;5013404;28;20544;-76
2022/07/02 01:04:18;;;;;;;12.98;3.33;;;27.20;56.50;;;;;;5013085;28;20041;-76
2022/07/02 01:06:44;;;;;;;11.18;3.50;;;27.20;56.70;;;;;;5013385;28;20028;-76
2022/07/02 01:12:02;;;;;;;13.55;3.70;;;27.20;55.40;;;;;;5013600;28;20040;-76
2022/07/02 01:14:28;;;;;;;12.85;3.80;;;27.20;54.30;;;;;;5013315;28;20097;-76
2022/07/02 01:16:55;;;;;;;13.73;3.85;;;27.30;53.20;;;;;;5013524;28;20076;-76
2022/07/02 01:19:22;;;;;;;15.48;4.20;;;27.20;51.80;;;;;;5011739;28;20041;-76
2022/07/02 01:22:18;;;;;;;16.92;4.25;;;27.10;51.00;;;;;;5013019;28;20045;-77
2022/07/02 01:24:49;;;;;;;15.20;3.95;;;27.10;48.50;;;;;;5013239;28;20061;-75
2022/07/02 01:27:16;;;;;;;9.13;3.80;;;27.10;49.30;;;;;;5012856;28;20129;-77
2022/07/02 01:29:42;;;;;;;11.55;3.72;;;27.00;48.80;;;;;;5012954;28;20034;-75
2022/07/02 01:32:09;;;;;;;14.05;3.58;;;27.00;48.30;;;;;;5013249;28;20495;-77
2022/07/02 01:34:46;;;;;;;12.57;3.25;;;27.00;47.80;;;;;;5011838;28;20533;-76
2022/07/02 01:37:16;;;;;;;11.55;3.25;;;27.00;47.40;;;;;;5012887;28;20053;-77
2022/07/02 01:39:44;;;;;;;20.45;3.17;;;26.90;47.00;;;;;;5012900;28;20494;-76
2022/07/02 01:42:10;;;;;;;11.23;3.22;;;26.90;46.90;;;;;;5011404;28;20046;-77
2022/07/02 01:44:38;;;;;;;14.65;4.10;;;26.80;46.90;;;;;;5012915;28;20037;-77
2022/07/02 01:47:06;;;;;;;16.38;3.70;;;26.80;47.10;;;;;;5013777;28;20113;-74
2022/07/02 01:49:31;;;;;;;8.52;3.70;;;26.80;47.20;;;;;;5014732;28;20125;-77
2022/07/02 01:51:57;;;;;;;10.90;3.72;;;26.80;46.80;;;;;;5012739;28;20531;-76
2022/07/02 01:54:23;;;;;;;11.85;3.38;;;26.80;46.80;;;;;;5012996;28;20121;-76
2022/07/02 01:56:49;;;;;;;15.93;4.07;;;26.80;46.90;;;;;;5012747;28;20502;-75
2022/07/02 01:59:14;;;;;;;9.30;3.10;;;26.80;46.60;;;;;;5011435;28;20501;-77
2022/07/02 02:01:44;;;;;;;12.48;3.85;;;26.80;46.70;;;;;;5011409;28;20034;-77
2022/07/02 02:04:10;;;;;;;12.13;3.20;;;26.80;46.30;;;;;;5012715;28;20022;-76
2022/07/02 02:06:37;;;;;;;9.95;3.63;;;26.80;46.20;;;;;;5013650;28;20029;-76
2022/07/02 02:09:03;;;;;;;11.93;3.50;;;26.80;46.30;;;;;;5011988;28;20387;-76
2022/07/02 02:11:30;;;;;;;8.35;2.70;;;26.80;46.30;;;;;;5012809;28;20097;-77
2022/07/02 02:13:58;;;;;;;12.18;3.13;;;26.70;46.00;;;;;;5013218;28;20030;-76
2022/07/02 02:16:28;;;;;;;9.02;3.20;;;26.60;45.30;;;;;;5011486;28;20022;-77
2022/07/02 02:18:57;;;;;;;9.38;3.10;;;26.60;44.60;;;;;;5011607;28;20030;-76
2022/07/02 02:21:26;;;;;;;10.23;3.00;;;26.60;46.00;;;;;;5012617;28;20101;-76
2022/07/02 02:23:54;;;;;;;11.65;3.05;;;26.60;44.70;;;;;;5012913;28;20025;-75
2022/07/02 02:26:20;;;;;;;8.90;2.90;;;26.60;45.70;;;;;;5011222;28;20026;-77
2022/07/02 02:28:46;;;;;;;8.15;3.22;;;26.60;45.70;;;;;;5012347;28;20387;-76
2022/07/02 02:31:12;;;;;;;11.98;3.08;;;26.60;45.60;;;;;;5015859;28;20459;-75
2022/07/02 02:33:37;;;;;;;12.80;3.10;;;26.60;45.50;;;;;;5016092;28;20030;-78
2022/07/02 02:36:04;;;;;;;12.50;3.15;;;26.50;45.40;;;;;;5016043;28;20594;-76
2022/07/02 02:38:29;;;;;;;11.23;3.00;;;26.50;45.30;;;;;;5015726;28;20490;-75
2022/07/02 02:40:55;;;;;;;8.93;3.38;;;26.40;45.40;;;;;;5015714;28;20022;-75
2022/07/02 02:43:21;;;;;;;10.52;3.10;;;26.40;45.40;;;;;;5015686;28;20045;-76
2022/07/02 02:45:48;;;;;;;8.93;3.03;;;26.30;45.30;;;;;;5015787;28;20078;-76
2022/07/02 02:48:17;;;;;;;11.40;3.35;;;26.30;45.60;;;;;;5015642;28;20101;-76
2022/07/02 02:50:43;;;;;;;12.70;3.20;;;26.30;44.50;;;;;;5015361;28;20084;-75
2022/07/02 02:53:08;;;;;;;10.13;3.03;;;26.20;45.60;;;;;;5015718;28;20022;-76
2022/07/02 02:55:34;;;;;;;14.23;4.13;;;26.30;45.70;;;;;;5015543;28;20022;-76
2022/07/02 02:58:00;;;;;;;7.50;3.42;;;26.20;45.70;;;;;;5015523;28;20157;-76
2022/07/02 03:00:27;;;;;;;12.38;3.90;;;26.10;45.50;;;;;;5015477;28;20022;-77
2022/07/02 03:02:53;;;;;;;7.20;3.35;;;26.10;45.70;;;;;;5014193;28;20431;-77
2022/07/02 03:05:18;;;;;;;12.77;3.28;;;26.00;45.80;;;;;;5014246;28;20033;-76
2022/07/02 03:07:44;;;;;;;10.60;3.95;;;26.00;45.40;;;;;;5015752;28;20061;-76
2022/07/02 03:10:10;;;;;;;12.98;3.83;;;25.90;45.40;;;;;;5015327;28;20045;-77
2022/07/02 03:12:36;;;;;;;11.00;3.35;;;25.90;45.40;;;;;;5014151;28;20034;-76
2022/07/02 03:15:02;;;;;;;13.18;3.72;;;26.00;45.10;;;;;;5014104;28;20125;-76
2022/07/02 03:17:27;;;;;;;6.97;3.10;;;25.90;45.10;;;;;;5015557;28;20025;-77
2022/07/02 03:19:53;;;;;;;14.30;4.00;;;25.90;45.20;;;;;;5015269;28;20395;-76
2022/07/02 03:22:19;;;;;;;7.32;3.03;;;25.90;45.10;;;;;;5014065;28;20038;-76
2022/07/02 03:24:45;;;;;;;8.43;2.85;;;25.90;45.30;;;;;;5013975;28;20029;-75
2022/07/02 03:27:10;;;;;;;7.57;2.63;;;25.90;45.30;;;;;;5015291;28;20475;-76
2022/07/02 03:29:36;;;;;;;9.95;2.83;;;25.80;45.60;;;;;;5014984;28;20037;-75
2022/07/02 03:32:02;;;;;;;10.07;3.00;;;25.80;45.80;;;;;;5015457;28;20129;-75
2022/07/02 03:34:28;;;;;;;5.97;2.70;;;25.80;45.60;;;;;;5015011;28;20038;-76
2022/07/02 03:36:53;;;;;;;10.38;2.78;;;25.80;45.50;;;;;;5015316;28;20026;-76
2022/07/02 03:39:19;;;;;;;6.80;2.60;;;25.70;45.70;;;;;;5013594;28;20057;-77
2022/07/02 03:41:45;;;;;;;11.95;2.85;;;25.70;45.70;;;;;;5014426;28;20030;-76
2022/07/02 03:44:11;;;;;;;8.15;2.65;;;25.70;45.70;;;;;;5015404;28;20088;-76
2022/07/02 03:46:36;;;;;;;11.00;2.85;;;25.70;45.70;;;;;;5013748;28;20033;-76
2022/07/02 03:49:02;;;;;;;8.82;2.45;;;25.70;45.70;;;;;;5015048;28;20028;-76
2022/07/02 03:51:28;;;;;;;9.02;2.60;;;25.80;46.00;;;;;;5014650;28;20526;-75
2022/07/02 03:53:54;;;;;;;8.35;2.60;;;25.80;45.60;;;;;;5014824;28;20022;-75
2022/07/02 03:56:19;;;;;;;11.50;2.53;;;25.70;45.70;;;;;;5014744;28;20026;-76
2022/07/02 03:58:45;;;;;;;7.82;2.20;;;25.60;45.60;;;;;;5014672;28;20044;-76
2022/07/02 04:01:11;;;;;;;5.63;2.35;;;25.50;45.60;;;;;;5014537;28;20395;-76
2022/07/02 04:03:37;;;;;;;5.70;2.30;;;25.50;45.60;;;;;;5014693;28;20034;-77
2022/07/02 04:06:03;;;;;;;10.68;2.80;;;25.50;45.80;;;;;;5014590;28;20022;-76
2022/07/02 04:08:29;;;;;;;12.40;3.20;;;25.50;45.60;;;;;;5014704;28;20041;-75
2022/07/02 04:10:55;;;;;;;9.48;2.75;;;25.50;45.50;;;;;;5013228;28;20471;-77
2022/07/02 04:13:20;;;;;;;10.00;2.42;;;25.40;45.80;;;;;;5014749;28;20097;-76
2022/07/02 04:15:47;;;;;;;7.28;3.08;;;25.50;45.90;;;;;;5013538;28;20410;-75
2022/07/02 04:18:13;;;;;;;9.30;3.15;;;25.50;46.10;;;;;;5015528;28;20030;-77
2022/07/02 04:20:38;;;;;;;9.18;2.42;;;25.50;45.90;;;;;;5013059;28;20116;-77
2022/07/02 04:23:04;;;;;;;10.85;2.88;;;25.50;45.70;;;;;;5014283;28;20129;-75
2022/07/02 04:25:30;;;;;;;19.73;2.80;;;25.50;45.90;;;;;;5014001;28;20502;-77
2022/07/02 04:27:56;;;;;;;7.70;2.17;;;25.50;46.20;;;;;;5014060;28;20022;-75
2022/07/02 04:30:22;;;;;;;8.90;2.90;;;25.40;45.90;;;;;;5013901;28;20097;-78
2022/07/02 04:32:47;;;;;;;9.65;2.53;;;25.40;46.30;;;;;;5014714;28;20548;-75
2022/07/02 04:35:13;;;;;;;7.75;2.50;;;25.40;46.20;;;;;;5014801;28;20025;-77
2022/07/02 04:37:40;;;;;;;8.93;2.35;;;25.40;46.20;;;;;;5014453;28;20490;-76
2022/07/02 04:40:06;;;;;;;10.00;2.35;;;25.40;46.00;;;;;;5012492;28;20105;-77
2022/07/02 04:42:32;;;;;;;9.40;2.65;;;25.40;45.50;;;;;;5013799;28;20505;-76
2022/07/02 04:44:58;;;;;;;7.93;3.15;;;25.30;46.00;;;;;;5013811;28;20018;-77
2022/07/02 04:47:23;;;;;;;5.63;1.70;;;25.30;45.80;;;;;;5014072;28;20033;-76
2022/07/02 04:49:49;;;;;;;11.50;2.33;;;25.30;46.00;;;;;;5013804;28;20030;-77
2022/07/02 04:52:15;;;;;;;9.27;1.95;;;25.30;46.10;;;;;;5013493;28;20399;-75
2022/07/02 04:54:40;;;;;;;12.77;2.10;;;25.40;46.10;;;;;;5013437;28;20022;-76
2022/07/02 04:57:06;;;;;;;8.13;2.33;;;25.40;46.00;;;;;;5013902;28;20084;-75
2022/07/02 04:59:32;;;;;;;5.60;2.20;;;25.50;46.20;;;;;;5013883;28;20080;-76
2022/07/02 05:01:57;;;;;;;11.20;2.20;;;25.40;46.10;;;;;;5011806;28;20034;-75
2022/07/02 05:04:23;;;;;;;7.55;2.40;;;25.50;46.10;;;;;;5013415;28;20045;-77
2022/07/02 05:06:49;;;;;;;7.75;1.92;;;25.50;45.70;;;;;;5013510;28;20033;-75
2022/07/02 05:09:15;;;;;;;7.00;2.42;;;25.60;45.90;;;;;;5013668;28;20030;-77
2022/07/02 05:11:40;;;;;;;7.05;2.08;;;25.70;46.20;;;;;;5012277;28;20021;-76
2022/07/02 05:14:06;;;;;;;10.80;2.38;;;25.80;45.50;;;;;;5014171;28;20467;-76
2022/07/02 05:16:32;;;;;;;7.25;2.22;;;25.80;45.50;;;;;;5013215;28;20509;-76
2022/07/02 05:18:58;;;;;;;9.73;2.78;;;25.80;45.50;;;;;;5012727;28;20447;-77
2022/07/02 05:21:23;;;;;;;9.32;2.55;;;26.00;45.30;;;;;;5012006;28;20057;-75
2022/07/02 05:23:49;;;;;;;7.15;2.38;;;26.10;45.00;;;;;;5012141;28;20072;-77
2022/07/02 05:26:15;;;;;;;7.78;2.25;;;26.40;44.90;;;;;;5011918;28;20061;-75
2022/07/02 05:28:40;;;;;;;10.00;2.60;;;26.80;44.20;;;;;;5013425;28;20076;-77
2022/07/02 05:31:06;;;;;;;5.80;2.08;;;27.30;43.60;;;;;;5013306;28;20507;-76
2022/07/02 05:33:32;;;;;;;12.90;2.50;;;27.70;43.00;;;;;;5011831;28;20476;-75
2022/07/02 05:35:57;;;;;;;9.45;2.17;;;28.30;42.30;;;;;;5014225;28;20026;-75
2022/07/02 05:38:23;;;;;;;7.90;2.20;;;28.50;41.10;;;;;;5014438;28;20029;-76
2022/07/02 05:40:49;;;;;;;7.72;1.95;;;28.80;40.90;;;;;;5012950;28;20026;-77
2022/07/02 05:43:15;;;;;;;8.25;2.55;;;29.10;40.70;;;;;;4995263;28;20038;-77
2022/07/02 05:45:40;;;;;;;8.15;2.47;;;29.50;40.20;;;;;;5013091;28;20072;-77
2022/07/02 05:48:06;;;;;;;15.35;2.63;;;29.90;39.70;;;;;;5013348;28;20033;-75
2022/07/02 05:50:32;;;;;;;7.22;2.17;;;30.20;39.00;;;;;;5012861;28;20150;-77
2022/07/02 05:52:58;;;;;;;6.20;2.35;;;30.50;38.50;;;;;;5012090;28;20033;-79
2022/07/02 05:55:23;;;;;;;10.95;2.90;;;30.80;38.20;;;;;;5013147;28;20430;-76
2022/07/02 05:57:49;;;;;;;11.57;2.72;;;31.20;37.90;;;;;;5011675;28;20025;-78
2022/07/02 06:00:15;;;;;;;8.88;2.50;;;31.30;37.30;;;;;;5012757;28;20333;-79
2022/07/02 06:02:41;;;;;;;7.88;2.20;;;31.40;37.30;;;;;;5013048;28;20038;-77
2022/07/02 06:07:52;;;;;;;7.13;2.05;;;31.50;37.10;;;;;;5017178;28;20080;-77
2022/07/02 06:10:18;;;;;;;8.38;2.53;;;31.50;36.90;;;;;;5016808;28;20022;-78
2022/07/02 06:12:47;;;;;;;13.65;2.25;;;31.60;36.90;;;;;;5015457;28;20164;-76
2022/07/02 06:15:13;;;;;;;10.40;2.15;;;31.60;36.50;;;;;;5016853;28;20068;-76
2022/07/02 06:17:39;;;;;;;10.50;2.60;;;31.60;36.70;;;;;;5016740;28;20018;-77
2022/07/02 06:20:05;;;;;;;12.45;2.17;;;31.70;36.70;;;;;;5017389;28;20084;-75
2022/07/02 06:22:30;;;;;;;7.43;2.33;;;31.70;36.70;;;;;;5016450;28;20034;-76
2022/07/02 06:24:57;;;;;;;8.20;2.45;;;31.80;36.10;;;;;;5016458;28;20517;-77
2022/07/02 06:27:22;;;;;;;12.50;2.67;;;32.00;36.10;;;;;;5014923;28;20049;-75
2022/07/02 06:29:48;;;;;;;7.38;2.40;;;32.10;35.80;;;;;;5016113;28;20400;-78
2022/07/02 06:32:16;;;;;;;7.82;2.42;;;32.30;35.60;;;;;;5016124;28;20050;-77
2022/07/02 06:34:43;;;;;;;8.32;2.33;;;32.40;35.30;;;;;;5016132;28;20034;-77
2022/07/02 06:37:09;;;;;;;9.25;2.03;;;32.40;35.60;;;;;;5016155;28;20022;-77
2022/07/02 06:39:35;;;;;;;12.73;2.10;;;32.60;35.50;;;;;;5015805;28;20131;-76
2022/07/02 06:42:20;;;;;;;7.75;2.13;;;32.70;35.10;;;;;;5015825;28;20034;-75
2022/07/02 06:44:50;;;;;;;8.70;2.50;;;32.50;35.10;;;;;;5014781;28;20356;-77
2022/07/02 06:47:17;;;;;;;6.07;2.22;;;32.60;34.80;;;;;;5015902;28;20022;-77
2022/07/02 06:49:43;;;;;;;9.60;2.10;;;32.60;34.80;;;;;;5015779;28;20036;-78
2022/07/02 06:52:10;;;;;;;7.78;2.30;;;32.80;34.70;;;;;;5015424;28;20144;-78
2022/07/02 06:54:36;;;;;;;8.05;2.22;;;32.80;34.30;;;;;;5013900;28;20026;-76
2022/07/02 06:57:03;;;;;;;12.73;3.10;;;32.90;34.40;;;;;;5015150;28;20033;-74
2022/07/02 06:59:29;;;;;;;5.90;2.30;;;33.00;34.10;;;;;;5015367;28;20132;-76
2022/07/02 07:01:54;;;;;;;7.43;2.38;;;33.10;34.80;;;;;;4998030;28;20462;-76
2022/07/02 07:04:20;;;;;;;9.57;2.10;;;33.20;34.20;;;;;;5014872;28;20032;-75
2022/07/02 07:06:53;;;;;;;7.53;2.45;;;33.30;33.90;;;;;;5014769;28;20101;-76
2022/07/02 07:09:19;;;;;;;14.43;2.88;;;33.40;33.50;;;;;;5014679;28;20025;-76
2022/07/02 07:11:45;;;;;;;8.55;2.40;;;33.50;33.70;;;;;;5014690;28;20030;-75
2022/07/02 07:14:11;;;;;;;7.90;1.90;;;33.80;33.60;;;;;;5013043;28;20053;-76
2022/07/02 07:16:37;;;;;;;11.73;3.85;;;33.70;33.10;;;;;;5014843;28;20018;-76
2022/07/02 07:19:04;;;;;;;9.25;2.42;;;33.40;33.70;;;;;;5014429;28;20022;-78
2022/07/02 07:21:30;;;;;;;7.22;2.15;;;33.30;33.90;;;;;;5014574;28;20427;-77
2022/07/02 07:23:56;;;;;;;22.00;3.25;;;33.30;34.10;;;;;;5013337;28;20026;-77
2022/07/02 07:26:22;;;;;;;7.75;2.10;;;33.50;33.50;;;;;;5014801;28;20076;-76
2022/07/02 07:28:48;;;;;;;9.10;2.30;;;33.60;33.60;;;;;;5013135;28;20099;-76
2022/07/02 07:31:16;;;;;;;6.95;2.15;;;33.60;33.40;;;;;;5014256;28;20033;-74
2022/07/02 07:33:41;;;;;;;10.32;2.90;;;33.70;33.20;;;;;;5014442;28;20030;-78
2022/07/02 07:36:07;;;;;;;12.00;2.80;;;33.90;33.20;;;;;;5013053;28;20533;-77
2022/07/02 07:38:33;;;;;;;14.02;2.60;;;33.90;33.20;;;;;;5012942;28;20029;-76
2022/07/02 07:41:00;;;;;;;6.72;2.40;;;33.70;32.80;;;;;;5014587;28;20131;-77
2022/07/02 07:43:25;;;;;;;8.88;2.38;;;33.70;33.50;;;;;;5014053;28;20038;-77
2022/07/02 07:45:51;;;;;;;14.70;3.35;;;33.60;33.10;;;;;;5014166;28;20157;-76
2022/07/02 07:48:17;;;;;;;15.38;3.47;;;33.70;33.20;;;;;;5014033;28;20037;-77
2022/07/02 07:50:42;;;;;;;17.23;6.80;;;33.70;33.10;;;;;;5012056;28;20104;-76
2022/07/02 07:53:08;;;;;;;25.45;5.05;;;33.60;34.10;;;;;;5013785;28;20474;-76
2022/07/02 07:55:34;;;;;;;14.55;4.13;;;33.50;34.10;;;;;;5013878;28;20034;-76
2022/07/02 07:58:00;;;;;;;10.52;3.90;;;33.40;33.20;;;;;;5013849;28;20025;-77
2022/07/02 08:00:25;;;;;;;9.23;3.60;;;33.40;33.00;;;;;;5012775;28;20022;-76
2022/07/02 08:02:51;;;;;;;10.27;3.78;;;33.30;33.20;;;;;;5013980;28;20034;-75
2022/07/02 08:05:17;;;;;;;13.35;3.90;;;33.30;33.50;;;;;;5012572;28;20030;-76
2022/07/02 08:07:44;;;;;;;9.30;3.42;;;33.30;34.00;;;;;;5012687;28;20029;-76
2022/07/02 08:10:10;;;;;;;8.70;2.90;;;33.40;33.50;;;;;;5013719;28;20029;-77
2022/07/02 08:12:37;;;;;;;7.90;2.53;;;33.30;33.30;;;;;;5014160;28;20030;-78
2022/07/02 08:15:04;;;;;;;14.07;3.38;;;33.30;33.00;;;;;;5014075;28;20394;-77
2022/07/02 08:17:30;;;;;;;10.60;3.08;;;33.20;33.00;;;;;;5013796;28;20120;-76
2022/07/02 08:19:56;;;;;;;9.20;2.72;;;33.10;33.00;;;;;;5014814;28;20204;-77
2022/07/02 08:22:22;;;;;;;13.60;2.10;;;33.10;33.30;;;;;;5015014;28;20085;-77
2022/07/02 08:24:48;;;;;;;12.80;4.28;;;33.10;33.30;;;;;;5012330;28;20493;-76
2022/07/02 08:27:15;;;;;;;8.52;2.92;;;33.00;33.70;;;;;;5012659;28;20029;-80
2022/07/02 08:29:41;;;;;;;9.02;2.53;;;32.90;33.90;;;;;;5013623;28;20025;-77
2022/07/02 08:32:07;;;;;;;10.32;2.20;;;32.80;34.10;;;;;;5013641;28;20010;-77
2022/07/02 08:34:35;;;;;;;8.18;2.40;;;32.80;33.90;;;;;;5012147;28;20489;-77
2022/07/02 08:37:01;;;;;;;8.57;2.67;;;32.70;33.30;;;;;;4996088;28;20088;-78
2022/07/02 08:39:28;;;;;;;11.05;2.42;;;32.60;33.60;;;;;;5012994;28;20055;-78
2022/07/02 08:41:57;;;;;;;7.43;2.10;;;32.50;33.70;;;;;;5013087;28;20075;-77
2022/07/02 08:44:24;;;;;;;15.35;2.15;;;32.40;33.70;;;;;;5012982;28;20029;-77
2022/07/02 08:46:51;;;;;;;8.52;2.47;;;32.40;33.80;;;;;;5013231;28;20076;-76
2022/07/02 08:49:21;;;;;;;12.48;2.15;;;32.30;33.50;;;;;;5011653;28;20034;-76
2022/07/02 08:52:02;;;;;;;7.28;1.92;;;32.20;33.30;;;;;;5012905;28;20081;-77
2022/07/02 08:54:28;;;;;;;11.40;2.60;;;32.20;33.40;;;;;;5013179;28;20025;-76
2022/07/02 08:56:56;;;;;;;12.75;2.55;;;32.30;33.40;;;;;;5011257;28;20101;-76
2022/07/02 08:59:21;;;;;;;17.23;3.80;;;32.30;33.20;;;;;;5011630;28;20551;-78
2022/07/02 09:01:48;;;;;;;10.85;2.45;;;32.30;33.00;;;;;;5012819;28;20118;-78
2022/07/02 09:04:18;;;;;;;9.73;2.20;;;32.30;32.50;;;;;;5013247;28;20030;-75
2022/07/02 09:06:47;;;;;;;11.85;2.72;;;32.40;32.60;;;;;;5013275;28;20113;-77
2022/07/02 09:09:13;;;;;;;18.58;3.65;;;32.40;31.70;;;;;;5013487;28;20097;-76
2022/07/02 09:11:39;;;;;;;10.88;2.60;;;32.40;31.90;;;;;;5012448;28;20068;-77
2022/07/02 09:14:07;;;;;;;11.82;2.42;;;32.40;31.60;;;;;;5012776;28;20052;-77
2022/07/02 09:16:34;;;;;;;14.88;3.00;;;32.40;32.00;;;;;;5012779;28;20022;-78
2022/07/02 09:19:00;;;;;;;7.28;2.40;;;32.40;31.90;;;;;;5011087;28;20025;-76
2022/07/02 09:21:26;;;;;;;10.75;2.40;;;32.40;31.20;;;;;;5012689;28;20332;-77
2022/07/02 09:23:53;;;;;;;13.55;2.72;;;32.40;30.30;;;;;;5011481;28;20029;-77
2022/07/02 09:26:24;;;;;;;12.02;2.50;;;32.40;30.40;;;;;;5011890;28;20025;-78
2022/07/02 09:29:03;;;;;;;10.80;2.28;;;32.40;30.00;;;;;;5012764;28;20022;-77
2022/07/02 09:31:30;;;;;;;10.05;2.30;;;32.40;30.40;;;;;;5012389;28;20029;-77
2022/07/02 09:33:56;;;;;;;12.05;2.60;;;32.40;30.40;;;;;;5012608;28;20105;-79
2022/07/02 09:36:23;;;;;;;17.85;3.08;;;32.40;30.40;;;;;;5012545;28;20018;-77
2022/07/02 09:38:51;;;;;;;9.75;3.03;;;32.50;30.30;;;;;;5014389;28;20030;-76
2022/07/02 09:41:20;;;;;;;14.82;2.40;;;32.60;29.80;;;;;;5016637;28;20026;-78
2022/07/02 09:44:02;;;;;;;16.08;2.45;;;32.60;29.70;;;;;;5015007;28;20119;-78
2022/07/02 09:46:29;;;;;;;14.18;2.65;;;32.60;29.50;;;;;;5015366;28;20030;-76
2022/07/02 09:49:08;;;;;;;13.73;2.30;;;32.70;29.00;;;;;;5016509;28;20029;-78
2022/07/02 09:51:50;;;;;;;9.77;2.47;;;32.70;28.70;;;;;;5016032;28;20088;-77
2022/07/02 09:54:20;;;;;;;5.63;2.10;;;32.80;28.40;;;;;;5016407;28;20064;-77
2022/07/02 09:56:56;;;;;;;12.48;2.63;;;32.80;28.70;;;;;;5015124;28;20017;-77
2022/07/02 09:59:24;;;;;;;14.68;2.42;;;32.80;28.80;;;;;;5016435;28;20077;-78
2022/07/02 10:01:51;;;;;;;8.00;2.78;;;32.90;28.50;;;;;;5016328;28;20034;-78
2022/07/02 10:04:27;;;;;;;17.05;2.70;;;32.90;28.00;;;;;;5016915;28;20112;-79
2022/07/02 10:06:53;;;;;;;11.00;2.28;;;32.90;27.90;;;;;;5016075;28;20022;-79
2022/07/02 10:09:21;;;;;;;10.15;2.53;;;32.90;27.50;;;;;;5014731;28;20034;-77
2022/07/02 10:11:48;;;;;;;12.80;2.38;;;32.90;27.80;;;;;;5016347;28;20052;-79
2022/07/02 10:14:17;;;;;;;9.68;2.20;;;33.00;27.40;;;;;;5016059;28;20037;-78
2022/07/02 10:16:43;;;;;;;8.05;2.08;;;33.10;27.50;;;;;;5016116;28;20018;-77
2022/07/02 10:19:10;;;;;;;10.38;2.25;;;33.10;27.80;;;;;;5014781;28;20080;-77
2022/07/02 10:21:39;;;;;;;10.43;2.25;;;33.10;27.60;;;;;;5015629;28;20079;-77
2022/07/02 10:24:06;;;;;;;8.85;1.95;;;33.20;27.20;;;;;;5015943;28;20034;-76
2022/07/02 10:26:32;;;;;;;12.63;2.75;;;33.30;26.80;;;;;;5016213;28;20050;-77
2022/07/02 10:29:04;;;;;;;13.77;2.13;;;33.30;27.00;;;;;;5014442;28;20030;-77
2022/07/02 10:31:36;;;;;;;9.82;2.25;;;33.30;26.90;;;;;;5015655;28;20026;-77
2022/07/02 10:34:36;;;;;;;8.10;2.13;;;33.30;27.10;;;;;;5015932;28;20026;-77
2022/07/02 10:37:03;;;;;;;7.63;2.00;;;33.30;27.40;;;;;;5014455;28;20033;-77
2022/07/02 10:39:39;;;;;;;14.27;2.63;;;33.30;27.30;;;;;;5014825;28;20053;-77
2022/07/02 10:42:08;;;;;;;10.60;2.45;;;33.40;27.30;;;;;;5014277;28;20026;-79
2022/07/02 10:44:44;;;;;;;16.30;2.95;;;33.50;27.40;;;;;;5015420;28;20044;-78
2022/07/02 10:47:24;;;;;;;11.23;2.10;;;33.50;27.10;;;;;;5015588;28;20022;-78
2022/07/02 10:49:58;;;;;;;13.88;3.25;;;33.60;27.60;;;;;;5014944;28;20057;-79
2022/07/02 10:52:47;;;;;;;15.98;3.33;;;33.70;28.10;;;;;;5015535;28;20037;-78
2022/07/02 10:55:24;;;;;;;9.50;2.40;;;33.80;28.20;;;;;;5015463;28;20022;-78
2022/07/02 10:58:04;;;;;;;22.10;3.42;;;33.90;27.80;;;;;;5014185;28;20034;-78
2022/07/02 11:00:34;;;;;;;16.83;2.75;;;34.00;28.00;;;;;;5014113;28;20057;-76
2022/07/02 11:03:12;;;;;;;25.05;3.45;;;34.00;28.00;;;;;;5015092;28;20177;-76
2022/07/02 11:06:22;;;;;;;12.88;2.58;;;34.00;28.30;;;;;;5015086;28;20033;-77
2022/07/02 11:08:53;;;;;;;18.73;3.35;;;34.00;28.40;;;;;;4995893;28;20042;-78
2022/07/02 11:11:37;;;;;;;12.68;3.35;;;34.10;28.70;;;;;;5014868;28;20029;-76
2022/07/02 11:14:17;;;;;;;10.35;2.90;;;34.20;29.00;;;;;;5013571;28;20103;-77
2022/07/02 11:16:51;;;;;;;12.25;2.63;;;34.30;28.70;;;;;;5014654;28;20061;-76
2022/07/02 11:19:19;;;;;;;11.30;2.60;;;34.30;29.00;;;;;;5013395;28;20065;-79
2022/07/02 11:21:50;;;;;;;12.52;2.85;;;34.30;29.00;;;;;;5014927;28;20072;-78
2022/07/02 11:24:18;;;;;;;14.38;3.22;;;34.30;29.20;;;;;;5014737;28;20105;-78
2022/07/02 11:26:45;;;;;;;13.20;2.72;;;34.40;29.20;;;;;;5013450;28;20083;-77
2022/07/02 11:29:11;;;;;;;13.95;3.42;;;34.40;29.30;;;;;;5015107;28;20563;-79
2022/07/02 11:31:39;;;;;;;14.00;2.88;;;34.50;29.20;;;;;;5014581;28;20467;-79
2022/07/02 11:34:06;;;;;;;15.40;3.35;;;34.60;29.40;;;;;;5014459;28;20021;-78
2022/07/02 11:36:32;;;;;;;14.68;3.53;;;34.80;29.10;;;;;;5014723;28;20065;-79
2022/07/02 11:38:58;;;;;;;15.15;2.88;;;34.80;29.50;;;;;;5014907;28;20114;-79
2022/07/02 11:41:29;;;;;;;12.32;2.47;;;34.80;29.40;;;;;;5014546;28;20037;-79
2022/07/02 11:43:56;;;;;;;11.30;2.90;;;34.90;30.00;;;;;;5014634;28;20033;-79
2022/07/02 11:46:29;;;;;;;13.40;3.58;;;35.00;31.20;;;;;;5013465;28;20033;-76
2022/07/02 11:48:57;;;;;;;13.80;2.97;;;35.00;31.60;;;;;;5016406;28;20052;-78
2022/07/02 11:51:24;;;;;;;8.45;2.33;;;35.00;32.00;;;;;;5014948;28;20100;-78
2022/07/02 11:54:01;;;;;;;10.65;2.88;;;35.10;32.20;;;;;;5014638;28;20034;-79
2022/07/02 11:56:29;;;;;;;10.90;2.83;;;35.10;32.90;;;;;;5014788;28;20056;-81
2022/07/02 11:58:55;;;;;;;13.52;2.72;;;35.10;32.80;;;;;;5014839;28;20022;-78
2022/07/02 12:01:28;;;;;;;14.00;2.17;;;35.20;32.90;;;;;;5013886;28;20164;-78
2022/07/02 12:03:57;;;;;;;10.60;2.60;;;35.20;33.40;;;;;;5015035;28;20050;-80
2022/07/02 12:06:32;;;;;;;11.63;2.50;;;35.30;33.60;;;;;;5017390;28;20029;-80
2022/07/02 12:08:59;;;;;;;13.27;2.00;;;35.30;33.80;;;;;;5016175;28;20416;-77
2022/07/02 12:11:25;;;;;;;14.10;2.65;;;35.40;33.60;;;;;;5016233;28;20018;-79
2022/07/02 12:13:52;;;;;;;7.78;2.13;;;35.50;34.00;;;;;;5014664;28;20048;-79
2022/07/02 12:16:22;;;;;;;16.88;3.08;;;35.60;34.20;;;;;;5015074;28;20151;-77
2022/07/02 12:19:03;;;;;;;12.23;2.50;;;35.60;34.40;;;;;;5014353;28;20030;-80
2022/07/02 12:21:34;;;;;;;14.25;2.40;;;35.60;34.60;;;;;;5015143;28;20018;-77
2022/07/02 12:24:00;;;;;;;14.02;2.45;;;35.70;34.60;;;;;;5012940;28;20462;-78
2022/07/02 12:26:28;;;;;;;16.20;2.92;;;35.70;34.60;;;;;;5014039;28;20083;-78
2022/07/02 12:31:55;;;;;;;8.98;2.55;;;35.60;34.90;;;;;;5014254;28;20041;-77
2022/07/02 12:34:22;;;;;;;9.98;2.47;;;35.60;34.70;;;;;;5013882;28;20029;-78
2022/07/02 12:36:53;;;;;;;17.95;2.67;;;35.60;34.50;;;;;;5013871;28;20129;-78
2022/07/02 12:39:20;;;;;;;12.60;2.60;;;35.70;34.30;;;;;;5012336;28;20029;-77
2022/07/02 12:41:47;;;;;;;9.02;1.95;;;35.70;34.30;;;;;;5013476;28;20057;-78
2022/07/02 12:44:21;;;;;;;12.35;2.75;;;35.80;34.20;;;;;;5013940;28;20069;-76
2022/07/02 12:46:51;;;;;;;9.15;2.38;;;35.90;33.80;;;;;;4996393;28;20034;-78
2022/07/02 12:49:19;;;;;;;15.07;2.53;;;36.00;33.60;;;;;;5013386;28;20424;-77
2022/07/02 12:52:00;;;;;;;19.00;2.65;;;36.00;33.60;;;;;;5012973;28;20049;-77
2022/07/02 12:54:38;;;;;;;12.60;2.58;;;36.00;33.20;;;;;;4996103;28;20480;-77